(°C)
(°C)
-0°
-2°
-2°
-3°
С
CСИ
СИ
СИ
CСИ
CСИ
CСИ
(km/h)
9-19
8-16
8-14
8-13
8-12
7-10
7-10
(mm)
0
0
0
0
0
0
0
(%)
0
0
0
0
0
0
0

Издигане на слънцето

/ -7.9°
sun-icon
UV 4
06:16
19:42
Нарастващ полумесец (26°)
07:31
22:08

METAR за 44.1°С 15.3°И (LDZD)

Час Условия Температура/
Точка на оросяване
Вятър Видимост Времето Облаци Налягане Промяна Raw
VFR 8°C / -2°C 50º 5kt >10km - Few Clouds 4000ft 1021 No Significant change LDZD 141800Z 05005KT 9999 FEW040 08/M02 Q1021 NOSIG
VFR 9°C / -2°C 40º 3kt >10km - Few Clouds 4000ft 1021 No Significant change LDZD 141730Z 04003KT 9999 FEW040 09/M02 Q1021 NOSIG
VFR 10°C / -3°C 30º variable 350º to 080º 5kt >10km - Few Clouds 4000ft 1021 No Significant change LDZD 141700Z 03005KT 350V080 9999 FEW040 10/M03 Q1021 NOSIG
VFR 11°C / -3°C 350º 7kt >10km - Few Clouds 4000ft 1021 No Significant change LDZD 141630Z 35007KT 9999 FEW040 11/M03 Q1021 NOSIG
VFR 12°C / -3°C 60º variable 020º to 110º 6kt >10km - Few Clouds 4000ft 1021 No Significant change LDZD 141600Z 06006KT 020V110 9999 FEW040 12/M03 Q1021 NOSIG
VFR 11°C / -4°C 50º variable 010º to 100º 7kt >10km - Few Clouds 4000ft 1021 No Significant change LDZD 141530Z 05007KT 010V100 9999 FEW040 SCT065 11/M04 Q1021 NOSIG
VFR 12°C / -5°C 320º variable 250º to 020º 8kt >10km - Few Clouds 4000ft 1021 Temporary: Wind 60º 8kt. LDZD 141500Z 32008KT 250V020 9999 FEW040 SCT065 12/M05 Q1021 TEMPO 06008KT
VFR 13°C / -3°C variable 5kt >10km - Few Clouds 4000ft 1021 Temporary: Wind 60º 8kt. LDZD 141430Z VRB05KT 9999 FEW040 SCT065 13/M03 Q1021 TEMPO 06008KT
VFR 11°C / -4°C 80º 10kt >10km - Few Clouds 4000ft 1021 No Significant change LDZD 141400Z 08010KT 9999 FEW040 SCT065 11/M04 Q1021 NOSIG
VFR 12°C / -4°C 30º variable 320º to 080º 8kt >10km - Few Clouds 4000ft 1021 Temporary: Wind 330º 8kt. LDZD 141330Z 03008KT 320V080 9999 FEW040 SCT065 12/M04 Q1021 TEMPO 33008KT
VFR 13°C / -3°C 360º variable 270º to 060º 7kt >10km - Few Clouds 4000ft 1021 No Significant change LDZD 141300Z 36007KT 270V060 9999 FEW040 SCT065 13/M03 Q1021 NOSIG
VFR 12°C / -4°C 20º variable 320º to 070º 7kt >10km - Few Clouds 4000ft 1021 Temporary: Wind 330º 8kt. LDZD 141230Z 02007KT 320V070 9999 FEW040 SCT065 12/M04 Q1021 TEMPO 33008KT
VFR 11°C / -4°C variable 4kt >10km - Few Clouds 4500ft 1021 Temporary: Wind 330º 8kt. LDZD 141200Z VRB04KT 9999 FEW045 SCT065 11/M04 Q1021 TEMPO 33008KT
VFR 11°C / -5°C 30º variable 340º to 090º 8kt >10km - Few Clouds 4500ft 1021 Temporary: Wind 330º 8kt. LDZD 141130Z 03008KT 340V090 9999 FEW045 SCT065 11/M05 Q1021 TEMPO 33008KT
VFR 11°C / -4°C 30º variable 330º to 100º 10kt >10km - Few Clouds 4500ft 1021 No Significant change LDZD 141100Z 03010KT 330V100 9999 FEW045 SCT065 11/M04 Q1021 NOSIG
VFR 11°C / -4°C 30º variable 300º to 100º 7kt >10km - Few Clouds 4500ft 1021 Becoming: Wind 240º 7kt. LDZD 141030Z 03007KT 300V100 9999 FEW045 SCT070 11/M04 Q1021 BECMG 24007KT
VFR 11°C / -5°C 60º variable 020º to 110º 12kt >10km - Few Clouds 4500ft 1021 Becoming: Wind 240º 7kt. LDZD 141000Z 06012KT 020V110 9999 FEW045 SCT070 11/M05 Q1021 BECMG 24007KT
VFR 11°C / -4°C 50º variable 010º to 080º 13kt >10km - Few Clouds 4500ft 1022 Becoming: Wind 240º 7kt. LDZD 140930Z 05013KT 010V080 9999 FEW045 SCT070 11/M04 Q1022 BECMG 24007KT
VFR 11°C / -4°C 50º variable 010º to 100º 9kt >10km - Few Clouds 4000ft 1022 Becoming: Wind 240º 7kt. LDZD 140900Z 05009KT 010V100 9999 FEW040 11/M04 Q1022 BECMG 24007KT
VFR 10°C / -4°C variable 5kt >10km - Few Clouds 4000ft 1022 No Significant change LDZD 140830Z VRB05KT 9999 FEW040 10/M04 Q1022 NOSIG
VFR 10°C / -3°C variable 5kt >10km - Few Clouds 4000ft 1022 No Significant change LDZD 140800Z VRB05KT 9999 FEW040 10/M03 Q1022 NOSIG
VFR 10°C / -4°C 320º variable 240º to 010º 7kt >10km - Few Clouds 4000ft 1021 Becoming: Wind 240º 6kt. LDZD 140730Z 32007KT 240V010 9999 FEW040 10/M04 Q1021 BECMG 24006KT
VFR 9°C / -4°C variable 4kt >10km - Few Clouds 4000ft 1021 No Significant change LDZD 140700Z VRB04KT 9999 FEW040 09/M04 Q1021 NOSIG
VFR 8°C / -1°C 120º variable 070º to 220º 3kt >10km - Few Clouds 4000ft 1021 No Significant change LDZD 140630Z 12003KT 070V220 9999 FEW040 08/M01 Q1021 NOSIG

VFR

8°C / -2°C

[Още]
Вятър 50º 5kt
Видимост >10km
Времето -
Облаци Few Clouds 4000ft
Налягане 1021
Промяна No Significant change
Raw LDZD 141800Z 05005KT 9999 FEW040 08/M02 Q1021 NOSIG

VFR

9°C / -2°C

[Още]
Вятър 40º 3kt
Видимост >10km
Времето -
Облаци Few Clouds 4000ft
Налягане 1021
Промяна No Significant change
Raw LDZD 141730Z 04003KT 9999 FEW040 09/M02 Q1021 NOSIG

VFR

10°C / -3°C

[Още]
Вятър 30º variable 350º to 080º 5kt
Видимост >10km
Времето -
Облаци Few Clouds 4000ft
Налягане 1021
Промяна No Significant change
Raw LDZD 141700Z 03005KT 350V080 9999 FEW040 10/M03 Q1021 NOSIG

VFR

11°C / -3°C

[Още]
Вятър 350º 7kt
Видимост >10km
Времето -
Облаци Few Clouds 4000ft
Налягане 1021
Промяна No Significant change
Raw LDZD 141630Z 35007KT 9999 FEW040 11/M03 Q1021 NOSIG

VFR

12°C / -3°C

[Още]
Вятър 60º variable 020º to 110º 6kt
Видимост >10km
Времето -
Облаци Few Clouds 4000ft
Налягане 1021
Промяна No Significant change
Raw LDZD 141600Z 06006KT 020V110 9999 FEW040 12/M03 Q1021 NOSIG

VFR

11°C / -4°C

[Още]
Вятър 50º variable 010º to 100º 7kt
Видимост >10km
Времето -
Облаци Few Clouds 4000ft
Налягане 1021
Промяна No Significant change
Raw LDZD 141530Z 05007KT 010V100 9999 FEW040 SCT065 11/M04 Q1021 NOSIG

VFR

12°C / -5°C

[Още]
Вятър 320º variable 250º to 020º 8kt
Видимост >10km
Времето -
Облаци Few Clouds 4000ft
Налягане 1021
Промяна Temporary: Wind 60º 8kt.
Raw LDZD 141500Z 32008KT 250V020 9999 FEW040 SCT065 12/M05 Q1021 TEMPO 06008KT

VFR

13°C / -3°C

[Още]
Вятър variable 5kt
Видимост >10km
Времето -
Облаци Few Clouds 4000ft
Налягане 1021
Промяна Temporary: Wind 60º 8kt.
Raw LDZD 141430Z VRB05KT 9999 FEW040 SCT065 13/M03 Q1021 TEMPO 06008KT

VFR

11°C / -4°C

[Още]
Вятър 80º 10kt
Видимост >10km
Времето -
Облаци Few Clouds 4000ft
Налягане 1021
Промяна No Significant change
Raw LDZD 141400Z 08010KT 9999 FEW040 SCT065 11/M04 Q1021 NOSIG

VFR

12°C / -4°C

[Още]
Вятър 30º variable 320º to 080º 8kt
Видимост >10km
Времето -
Облаци Few Clouds 4000ft
Налягане 1021
Промяна Temporary: Wind 330º 8kt.
Raw LDZD 141330Z 03008KT 320V080 9999 FEW040 SCT065 12/M04 Q1021 TEMPO 33008KT

VFR

13°C / -3°C

[Още]
Вятър 360º variable 270º to 060º 7kt
Видимост >10km
Времето -
Облаци Few Clouds 4000ft
Налягане 1021
Промяна No Significant change
Raw LDZD 141300Z 36007KT 270V060 9999 FEW040 SCT065 13/M03 Q1021 NOSIG

VFR

12°C / -4°C

[Още]
Вятър 20º variable 320º to 070º 7kt
Видимост >10km
Времето -
Облаци Few Clouds 4000ft
Налягане 1021
Промяна Temporary: Wind 330º 8kt.
Raw LDZD 141230Z 02007KT 320V070 9999 FEW040 SCT065 12/M04 Q1021 TEMPO 33008KT

VFR

11°C / -4°C

[Още]
Вятър variable 4kt
Видимост >10km
Времето -
Облаци Few Clouds 4500ft
Налягане 1021
Промяна Temporary: Wind 330º 8kt.
Raw LDZD 141200Z VRB04KT 9999 FEW045 SCT065 11/M04 Q1021 TEMPO 33008KT

VFR

11°C / -5°C

[Още]
Вятър 30º variable 340º to 090º 8kt
Видимост >10km
Времето -
Облаци Few Clouds 4500ft
Налягане 1021
Промяна Temporary: Wind 330º 8kt.
Raw LDZD 141130Z 03008KT 340V090 9999 FEW045 SCT065 11/M05 Q1021 TEMPO 33008KT

VFR

11°C / -4°C

[Още]
Вятър 30º variable 330º to 100º 10kt
Видимост >10km
Времето -
Облаци Few Clouds 4500ft
Налягане 1021
Промяна No Significant change
Raw LDZD 141100Z 03010KT 330V100 9999 FEW045 SCT065 11/M04 Q1021 NOSIG

VFR

11°C / -4°C

[Още]
Вятър 30º variable 300º to 100º 7kt
Видимост >10km
Времето -
Облаци Few Clouds 4500ft
Налягане 1021
Промяна Becoming: Wind 240º 7kt.
Raw LDZD 141030Z 03007KT 300V100 9999 FEW045 SCT070 11/M04 Q1021 BECMG 24007KT

VFR

11°C / -5°C

[Още]
Вятър 60º variable 020º to 110º 12kt
Видимост >10km
Времето -
Облаци Few Clouds 4500ft
Налягане 1021
Промяна Becoming: Wind 240º 7kt.
Raw LDZD 141000Z 06012KT 020V110 9999 FEW045 SCT070 11/M05 Q1021 BECMG 24007KT

VFR

11°C / -4°C

[Още]
Вятър 50º variable 010º to 080º 13kt
Видимост >10km
Времето -
Облаци Few Clouds 4500ft
Налягане 1022
Промяна Becoming: Wind 240º 7kt.
Raw LDZD 140930Z 05013KT 010V080 9999 FEW045 SCT070 11/M04 Q1022 BECMG 24007KT

VFR

11°C / -4°C

[Още]
Вятър 50º variable 010º to 100º 9kt
Видимост >10km
Времето -
Облаци Few Clouds 4000ft
Налягане 1022
Промяна Becoming: Wind 240º 7kt.
Raw LDZD 140900Z 05009KT 010V100 9999 FEW040 11/M04 Q1022 BECMG 24007KT

VFR

10°C / -4°C

[Още]
Вятър variable 5kt
Видимост >10km
Времето -
Облаци Few Clouds 4000ft
Налягане 1022
Промяна No Significant change
Raw LDZD 140830Z VRB05KT 9999 FEW040 10/M04 Q1022 NOSIG

VFR

10°C / -3°C

[Още]
Вятър variable 5kt
Видимост >10km
Времето -
Облаци Few Clouds 4000ft
Налягане 1022
Промяна No Significant change
Raw LDZD 140800Z VRB05KT 9999 FEW040 10/M03 Q1022 NOSIG

VFR

10°C / -4°C

[Още]
Вятър 320º variable 240º to 010º 7kt
Видимост >10km
Времето -
Облаци Few Clouds 4000ft
Налягане 1021
Промяна Becoming: Wind 240º 6kt.
Raw LDZD 140730Z 32007KT 240V010 9999 FEW040 10/M04 Q1021 BECMG 24006KT

VFR

9°C / -4°C

[Още]
Вятър variable 4kt
Видимост >10km
Времето -
Облаци Few Clouds 4000ft
Налягане 1021
Промяна No Significant change
Raw LDZD 140700Z VRB04KT 9999 FEW040 09/M04 Q1021 NOSIG

VFR

8°C / -1°C

[Още]
Вятър 120º variable 070º to 220º 3kt
Видимост >10km
Времето -
Облаци Few Clouds 4000ft
Налягане 1021
Промяна No Significant change
Raw LDZD 140630Z 12003KT 070V220 9999 FEW040 08/M01 Q1021 NOSIG

TAF за 44.1°С 15.3°И (LDZD)

From till


Maximum Temperature 13ºC on . Minimum Temperature 0ºC on .
From till Wind 60º 6kt. Visibility 10km or more. Few Clouds 4000ft.
With 40% probability, Temporarly from till Wind 60º 12kt.
With 40% probability, Temporarly from till Wind 330º 8kt.

Raw: TAF LDZD 141725Z 1418/1518 06006KT 9999 FEW040 TX13/1513Z TN00/1503Z PROB40 TEMPO 1506/1509 06012KT PROB40 TEMPO 1509/1516 33008KT

Актуални сателитни и дъждовни снимки за 44.1°С 15.3°И

  • Валежи:
  • <1 mm
  • 1-2 mm
  • 2-5 mm
  • >5 mm

Маркерът за локация е поставен върху 44.1°С 15.3°И. [Още]

Сателитното изображение в реално време съчетава видимата светлина през деня с инфрачервеното лъчение през нощта. През нощта изображението не е тъмно, тъй като инфрачервеното лъчение може да открива температурни разлики. За съжаление ниските облаци и мъглата са трудни за разграничаване от температурите на земята и затова могат да бъдат почти невидими през нощта. Сателитните изображения на Meteosat за Европа се актуализират в реално време на всеки 5 минути. Изображенията GOES-16/GOES-17 (Северна и Южна Америка) и Химавари (Азия) се актуализират на всеки 10 минути.

Валежите се изчисляват на база информация от радари и сателити. Нощните прогнози за валежи от сателити са с по-ниска прецизност от дневните прогнози. Оранжевите кръстове маркират локациите, на които са засечени светкавици (над Европа).

Всички права запазени 2021 EUMETSAT / meteoblue. Данни за светкавици, предоставени от nowcast.